Terminal Aerodrome Forecast
Issued by NWS Duluth, MN

Home | Current Version | Previous Version | Text Only | Print | Product List | Glossary On
Versions: 1 2 3 4 5 6 7 8 9 10 11 12 13 14 15 16 17 18 19 20 21 22 23 24 25 26 27 28 29 30 31 32 33 34 35 36 37 38 39 40 41 42
122
FTUS43 KDLH 070115 AAC
TAFINL
TAF AMD
KINL 070115Z 0701/0724 11004KT 4SM -SN BR VCSH FEW045 OVC080
     FM070200 VRB03KT P6SM -SN OVC035
     FM070500 27005KT 2SM -SN BR OVC010
     FM071100 27007KT 3SM -SN OVC010
     FM071700 30011G22KT 1 1/2SM -SN BLSN OVC008=

USA.gov is the U.S. government's official web portal to all federal, state and local government web resources and services.